Time;durP1;ratioP1;P1;durP2;ratioP2;P2;SDS_P1;SDS_P2;PMS_P1;PMS_P2;Temp;Humidity;BMP_temperature;BMP_pressure;BME280_temperature;BME280_humidity;BME280_pressure;Samples;Min_cycle;Max_cycle;Signal;HPM_P1;HPM_P2
2022/05/31 00:01:16;;;;;;;;;20.00;17.00;;;;;16.89;48.65;98756.63;6288740;27;97479;-70
2022/05/31 00:04:20;;;;;;;;;14.50;14.50;;;;;16.76;48.70;98751.63;6288652;27;97573;-70
2022/05/31 00:07:23;;;;;;;;;16.80;15.00;;;;;16.66;48.95;98765.22;6288329;27;97514;-70
2022/05/31 00:10:27;;;;;;;;;16.25;15.25;;;;;16.30;49.18;98738.84;6289014;27;96997;-67
2022/05/31 00:13:32;;;;;;;;;18.00;17.60;;;;;16.31;49.50;98768.50;6271142;27;96630;-67
2022/05/31 00:16:35;;;;;;;;;17.40;16.40;;;;;16.22;49.63;98772.81;6288827;27;96641;-70
2022/05/31 00:19:39;;;;;;;;;18.75;17.00;;;;;16.18;50.01;98771.66;6253346;27;96808;-70
2022/05/31 00:22:45;;;;;;;;;18.25;18.00;;;;;16.13;50.27;98771.63;6270650;27;96742;-70
2022/05/31 00:25:48;;;;;;;;;17.00;16.00;;;;;16.03;50.29;98768.81;6270019;27;97465;-69
2022/05/31 00:28:53;;;;;;;;;18.50;16.00;;;;;16.12;50.39;98778.16;6288059;27;97447;-70
2022/05/31 00:31:56;;;;;;;;;19.40;17.40;;;;;16.17;50.44;98775.47;6298274;27;96734;-68
2022/05/31 00:35:05;;;;;;;;;19.00;17.60;;;;;16.19;50.35;98776.03;6288473;27;96622;-68
2022/05/31 00:38:10;;;;;;;;;18.00;16.75;;;;;16.19;50.19;98770.59;6270333;27;96914;-66
2022/05/31 00:41:25;;;;;;;;;19.75;18.00;;;;;16.10;50.71;98760.44;6297231;27;97546;-71
2022/05/31 00:44:30;;;;;;;;;20.00;19.00;;;;;16.00;51.18;98756.56;6284002;27;98052;-70
2022/05/31 00:47:35;;;;;;;;;19.00;18.00;;;;;15.90;50.95;98756.50;6284598;27;100042;-67
2022/05/31 00:50:43;;;;;;;;;18.00;16.00;;;;;15.88;51.27;98761.34;6270319;27;97382;-68
2022/05/31 00:53:51;;;;;;;;;21.00;18.00;;;;;15.81;51.33;98749.06;6252675;27;96705;-71
2022/05/31 00:56:56;;;;;;;;;20.00;18.60;;;;;15.87;50.94;98757.03;6287162;27;97015;-67
2022/05/31 01:00:06;;;;;;;;;20.40;18.40;;;;;15.86;51.17;98754.56;6269313;27;96978;-69
2022/05/31 01:03:16;;;;;;;;;21.00;18.75;;;;;15.78;51.31;98750.41;6262278;27;96542;-70
2022/05/31 01:06:20;;;;;;;;;18.60;17.40;;;;;15.74;51.20;98752.00;6270241;27;96362;-66
2022/05/31 01:09:24;;;;;;;;;20.00;18.20;;;;;15.73;51.12;98758.53;6257570;27;96582;-67
2022/05/31 01:12:48;;;;;;;;;19.00;18.00;;;;;15.70;51.26;98760.91;6265271;27;98619;-66
2022/05/31 01:16:15;;;;;;;;;19.00;17.50;;;;;15.67;51.17;98766.88;6288440;27;97442;-70
2022/05/31 01:23:06;;;;;;;;;21.00;18.00;;;;;15.66;51.06;98768.78;6283732;27;97586;-67
2022/05/31 01:26:19;;;;;;;;;19.00;17.00;;;;;15.62;50.98;98767.66;6265756;27;97456;-70
2022/05/31 01:29:27;;;;;;;;;18.00;17.80;;;;;15.58;50.77;98772.78;6285037;27;97831;-68
2022/05/31 01:32:30;;;;;;;;;20.67;19.67;;;;;15.58;50.90;98769.25;6283986;27;97503;-67
2022/05/31 01:35:35;;;;;;;;;18.40;17.00;;;;;15.58;50.84;98774.69;6260613;27;98398;-71
2022/05/31 01:38:45;;;;;;;;;19.25;18.25;;;;;15.58;51.11;98771.97;6267515;27;96826;-67
2022/05/31 01:41:54;;;;;;;;;20.00;18.00;;;;;15.41;51.12;98765.78;6286235;27;97262;-70
2022/05/31 01:45:04;;;;;;;;;16.60;16.00;;;;;15.35;51.17;98786.63;6259568;27;98096;-69
2022/05/31 01:48:08;;;;;;;;;20.00;18.00;;;;;15.21;51.52;98788.09;6247159;27;98004;-66
2022/05/31 01:51:13;;;;;;;;;19.00;18.40;;;;;15.13;51.80;98797.53;6247031;27;98099;-71
2022/05/31 01:54:20;;;;;;;;;19.00;17.00;;;;;15.06;52.23;98799.59;6263387;27;96950;-70
2022/05/31 01:57:25;;;;;;;;;18.00;17.00;;;;;15.03;52.10;98793.84;6276668;27;97409;-70
2022/05/31 02:00:29;;;;;;;;;18.00;16.00;;;;;14.97;52.41;98801.09;6267148;27;96753;-67
2022/05/31 02:03:34;;;;;;;;;20.60;19.00;;;;;14.86;52.47;98798.50;6265218;27;98730;-69
2022/05/31 02:06:39;;;;;;;;;19.00;18.00;;;;;14.80;52.26;98800.34;6285318;27;97043;-71
2022/05/31 02:09:46;;;;;;;;;19.40;18.00;;;;;14.82;52.10;98800.91;6273733;27;96717;-67
2022/05/31 02:13:01;;;;;;;;;18.00;17.00;;;;;14.83;52.30;98807.97;6249650;27;98565;-70
2022/05/31 02:16:24;;;;;;;;;17.25;16.75;;;;;14.84;52.20;98812.34;6267030;27;97730;-67
2022/05/31 02:19:55;;;;;;;;;16.80;16.00;;;;;14.78;51.97;98813.34;6269283;27;96665;-70
2022/05/31 02:23:03;;;;;;;;;19.50;17.00;;;;;14.74;52.26;98813.03;6269244;27;97116;-67
2022/05/31 02:26:08;;;;;;;;;18.40;17.80;;;;;14.75;51.95;98811.13;6285904;27;97085;-67
2022/05/31 02:29:13;;;;;;;;;23.60;19.60;;;;;14.78;52.26;98807.09;6268210;27;96538;-69
2022/05/31 02:32:17;;;;;;;;;18.00;18.00;;;;;14.79;52.01;98806.84;6245288;27;97162;-70
2022/05/31 02:35:20;;;;;;;;;16.40;16.00;;;;;14.77;51.83;98811.69;6267020;27;97540;-70
2022/05/31 02:38:24;;;;;;;;;16.00;16.00;;;;;14.77;51.86;98808.16;6266770;27;96802;-70
2022/05/31 02:41:29;;;;;;;;;17.40;16.40;;;;;14.73;51.65;98808.66;6250700;27;99514;-69
2022/05/31 02:44:32;;;;;;;;;15.00;14.67;;;;;14.73;51.80;98807.84;6271988;27;96972;-67
2022/05/31 02:47:37;;;;;;;;;20.75;18.50;;;;;14.64;51.79;98803.91;6255826;27;98463;-70
2022/05/31 02:50:41;;;;;;;;;18.00;16.40;;;;;14.54;51.57;98779.34;6256797;27;97709;-67
2022/05/31 02:53:45;;;;;;;;;16.00;15.00;;;;;14.62;51.53;98798.72;6253098;27;97218;-67
2022/05/31 02:56:52;;;;;;;;;18.20;17.00;;;;;14.67;51.61;98806.13;6245462;27;96845;-70
2022/05/31 03:00:21;;;;;;;;;18.00;16.00;;;;;14.72;51.34;98803.47;6288182;27;97177;-69
2022/05/31 03:03:54;;;;;;;;;18.80;17.00;;;;;14.78;51.55;98798.94;6269351;27;97624;-70
2022/05/31 03:07:18;;;;;;;;;16.40;15.00;;;;;14.76;51.47;98784.81;6235629;27;97097;-70
2022/05/31 03:10:46;;;;;;;;;18.00;17.00;;;;;14.84;51.53;98804.19;6279881;27;100349;-68
2022/05/31 03:13:53;;;;;;;;;19.00;17.00;;;;;14.90;51.24;98800.50;6263224;27;97117;-67
2022/05/31 03:17:02;;;;;;;;;17.00;16.00;;;;;14.98;51.21;98810.91;6247093;27;96658;-67
2022/05/31 03:20:10;;;;;;;;;17.50;16.00;;;;;15.06;51.42;98809.63;6270417;27;97472;-71
2022/05/31 03:23:18;;;;;;;;;17.00;16.00;;;;;15.15;51.34;98822.50;6269806;27;96724;-66
2022/05/31 03:26:24;;;;;;;;;16.00;15.00;;;;;15.26;51.27;98836.22;6251021;27;96882;-71
2022/05/31 03:29:30;;;;;;;;;17.00;15.80;;;;;15.32;51.64;98838.75;6269926;27;97076;-68
2022/05/31 03:32:36;;;;;;;;;17.00;16.20;;;;;15.44;51.65;98834.00;6291587;27;98595;-70
2022/05/31 03:35:40;;;;;;;;;17.60;16.00;;;;;15.48;51.33;98813.41;6287998;27;96889;-70
2022/05/31 03:38:53;;;;;;;;;18.00;17.25;;;;;15.71;51.29;98844.09;6271534;27;97555;-68
2022/05/31 03:41:57;;;;;;;;;18.50;17.50;;;;;15.76;50.93;98850.41;6256537;27;96638;-70
2022/05/31 03:45:02;;;;;;;;;19.00;16.60;;;;;15.82;51.06;98852.13;6266928;27;96731;-68
2022/05/31 03:48:41;;;;;;;;;18.00;16.00;;;;;15.71;50.73;98846.81;6207747;27;97419;-70
2022/05/31 03:51:45;;;;;;;;;21.00;18.00;;;;;15.78;50.18;98863.75;6263392;27;97509;-70
2022/05/31 03:55:01;;;;;;;;;20.00;19.00;;;;;15.74;50.22;98855.28;6273100;27;97937;-68
2022/05/31 03:58:22;;;;;;;;;19.00;17.00;;;;;15.78;50.30;98852.88;6266888;27;97689;-68
2022/05/31 04:01:33;;;;;;;;;19.25;17.00;;;;;15.81;50.35;98850.47;6261207;27;96876;-70
2022/05/31 04:04:37;;;;;;;;;19.00;18.00;;;;;15.86;50.35;98858.69;6262644;27;97251;-67
2022/05/31 04:07:40;;;;;;;;;20.50;19.00;;;;;15.83;50.63;98855.66;6254648;27;97397;-70
2022/05/31 04:10:45;;;;;;;;;19.60;18.00;;;;;15.87;50.35;98849.47;6251816;27;98144;-67
2022/05/31 04:13:48;;;;;;;;;22.00;19.00;;;;;15.95;50.37;98854.41;6251254;27;97547;-68
2022/05/31 04:17:24;;;;;;;;;20.00;19.00;;;;;16.11;50.30;98849.94;6244709;27;97829;-68
2022/05/31 04:20:29;;;;;;;;;19.00;18.00;;;;;16.24;50.03;98851.41;6268439;27;97384;-68
2022/05/31 04:27:15;;;;;;;;;20.60;19.00;;;;;16.53;49.63;98849.19;6237309;27;97073;-68
2022/05/31 04:30:43;;;;;;;;;17.80;17.80;;;;;16.79;49.16;98849.16;6262476;27;96406;-71
2022/05/31 04:34:16;;;;;;;;;21.60;19.00;;;;;17.04;48.53;98861.28;6260445;27;97017;-70
2022/05/31 04:37:21;;;;;;;;;20.00;18.00;;;;;17.14;47.88;98859.44;6257116;27;96897;-71
2022/05/31 04:40:41;;;;;;;;;21.00;19.50;;;;;17.22;47.78;98856.19;6228913;27;97841;-72
2022/05/31 04:44:18;;;;;;;;;17.40;17.00;;;;;17.31;47.48;98859.22;6236072;27;97884;-70
2022/05/31 04:47:22;;;;;;;;;18.00;17.00;;;;;17.42;47.03;98860.06;6249171;27;97239;-68
2022/05/31 04:50:35;;;;;;;;;18.25;17.25;;;;;17.55;47.04;98846.75;6260494;27;98068;-68
2022/05/31 04:53:40;;;;;;;;;17.60;17.00;;;;;17.70;46.46;98848.75;6260892;27;96660;-68
2022/05/31 04:57:01;;;;;;;;;16.00;15.00;;;;;17.84;46.51;98852.59;6242959;27;98409;-71
2022/05/31 05:00:07;;;;;;;;;19.00;17.00;;;;;18.00;46.51;98856.19;6265733;27;97020;-70
2022/05/31 05:03:22;;;;;;;;;19.80;18.80;;;;;18.22;46.27;98845.84;6258446;27;96879;-72
2022/05/31 05:06:27;;;;;;;;;18.00;17.00;;;;;18.35;45.63;98850.75;6260501;27;98042;-69
2022/05/31 05:09:32;;;;;;;;;19.00;17.00;;;;;18.39;45.27;98846.38;6251174;27;96673;-69
2022/05/31 05:13:03;;;;;;;;;16.60;15.20;;;;;18.58;44.64;98849.41;6254416;27;97024;-72
2022/05/31 05:16:37;;;;;;;;;16.00;15.00;;;;;18.74;45.05;98834.66;6263129;27;96624;-72
2022/05/31 05:19:44;;;;;;;;;17.50;17.00;;;;;19.08;44.55;98861.34;6250546;27;97816;-70
2022/05/31 05:22:50;;;;;;;;;17.00;16.60;;;;;19.31;44.65;98861.53;6269626;27;97410;-70
2022/05/31 05:25:56;;;;;;;;;17.00;16.00;;;;;19.52;44.25;98858.75;6244348;27;98240;-70
2022/05/31 05:32:41;;;;;;;;;18.80;17.00;;;;;19.94;42.73;98871.94;6202132;28;96938;-69
2022/05/31 05:35:50;;;;;;;;;18.20;16.20;;;;;20.09;42.95;98875.38;6183887;28;96706;-72
2022/05/31 05:38:55;;;;;;;;;17.00;16.00;;;;;20.16;41.78;98873.16;6269435;27;97439;-69
2022/05/31 05:42:08;;;;;;;;;20.00;17.40;;;;;20.28;43.11;98872.81;6287240;27;96831;-69
2022/05/31 05:45:14;;;;;;;;;18.00;17.00;;;;;20.52;42.77;98864.72;6269459;27;96972;-71
2022/05/31 05:48:19;;;;;;;;;19.40;17.40;;;;;20.63;42.24;98852.53;6252230;27;98070;-72
2022/05/31 05:51:25;;;;;;;;;19.00;17.00;;;;;20.81;41.55;98865.53;6270098;27;96820;-71
2022/05/31 05:55:06;;;;;;;;;19.60;18.60;;;;;21.06;41.68;98862.53;6268859;27;96588;-71
2022/05/31 05:58:28;;;;;;;;;20.25;18.25;;;;;21.11;40.99;98859.72;6276496;27;97438;-72
2022/05/31 06:01:55;;;;;;;;;22.40;21.00;;;;;21.14;39.96;98856.44;6281250;27;96668;-68
2022/05/31 06:05:44;;;;;;;;;24.00;19.40;;;;;21.25;40.88;98856.34;6223126;27;97387;-70
2022/05/31 06:08:53;;;;;;;;;21.60;18.20;;;;;21.39;40.97;98851.78;6248534;27;97579;-71
2022/05/31 06:12:04;;;;;;;;;19.25;17.75;;;;;21.53;41.41;98861.75;6286848;27;97492;-69
2022/05/31 06:15:12;;;;;;;;;19.00;18.60;;;;;21.77;41.08;98863.63;6267034;27;97667;-69
2022/05/31 06:18:19;;;;;;;;;18.50;18.50;;;;;21.88;40.46;98860.47;6268231;27;97417;-68
2022/05/31 06:21:25;;;;;;;;;17.60;17.00;;;;;22.05;40.83;98862.69;6245267;27;97965;-71
2022/05/31 06:24:39;;;;;;;;;19.00;18.00;;;;;22.25;40.30;98854.16;6268870;27;97013;-71
2022/05/31 06:28:13;;;;;;;;;20.00;17.20;;;;;22.41;39.78;98854.75;6268125;27;96647;-69
2022/05/31 06:31:17;;;;;;;;;15.60;15.60;;;;;22.56;39.24;98859.97;6268638;27;99524;-69
2022/05/31 06:34:22;;;;;;;;;17.60;17.00;;;;;22.69;38.94;98861.13;6268991;27;96645;-71
2022/05/31 06:37:44;;;;;;;;;19.00;15.00;;;;;22.79;38.94;98858.22;6268836;27;96735;-72
2022/05/31 06:40:48;;;;;;;;;18.60;17.00;;;;;22.73;37.31;98851.19;6286243;27;96908;-71
2022/05/31 06:44:11;;;;;;;;;18.50;17.00;;;;;22.66;37.89;98850.75;6286451;27;96962;-72
2022/05/31 06:47:37;;;;;;;;;18.00;16.00;;;;;22.84;37.58;98853.47;6238735;27;97523;-72
2022/05/31 06:51:04;;;;;;;;;17.50;16.25;;;;;23.06;38.09;98851.97;6265924;27;96667;-71
2022/05/31 06:57:58;;;;;;;;;18.00;16.00;;;;;23.52;37.54;98860.97;6247966;27;97183;-68
2022/05/31 07:01:08;;;;;;;;;15.00;13.60;;;;;23.70;36.92;98856.47;6250647;27;97433;-68
2022/05/31 07:04:12;;;;;;;;;13.60;13.00;;;;;23.86;37.24;98863.25;6283125;27;97590;-70
2022/05/31 07:07:15;;;;;;;;;17.25;16.00;;;;;23.69;35.27;98857.59;6268651;27;97384;-72
2022/05/31 07:10:40;;;;;;;;;15.00;14.60;;;;;23.87;36.87;98858.56;6235684;27;96801;-69
2022/05/31 07:13:53;;;;;;;;;16.00;15.50;;;;;24.11;36.27;98848.09;6268007;27;97066;-71
2022/05/31 07:16:57;;;;;;;;;15.00;14.00;;;;;24.32;36.11;98849.28;6286786;27;96989;-68
2022/05/31 07:20:12;;;;;;;;;15.60;15.00;;;;;24.34;35.56;98854.47;6268488;27;97470;-72
2022/05/31 07:23:15;;;;;;;;;16.00;14.00;;;;;24.52;36.13;98853.50;6267634;27;96911;-69
2022/05/31 07:26:31;;;;;;;;;15.60;14.00;;;;;24.69;35.77;98850.84;6268354;27;96948;-71
2022/05/31 07:29:38;;;;;;;;;15.00;14.00;;;;;24.78;34.66;98848.94;6271838;27;97409;-71
2022/05/31 07:32:43;;;;;;;;;13.60;13.40;;;;;24.72;34.49;98841.13;6272568;27;97151;-71
2022/05/31 07:36:07;;;;;;;;;15.00;14.00;;;;;24.59;35.11;98851.09;6290733;27;97433;-73
2022/05/31 07:39:24;;;;;;;;;15.00;14.00;;;;;24.93;35.06;98856.84;6264496;27;97438;-69
2022/05/31 07:42:30;;;;;;;;;14.00;14.00;;;;;25.20;34.34;98855.03;6252328;27;96945;-70
2022/05/31 07:45:34;;;;;;;;;12.00;12.00;;;;;25.54;33.93;98846.88;6254470;27;98433;-72
2022/05/31 07:48:41;;;;;;;;;12.00;11.00;;;;;25.83;34.40;98851.84;6266824;27;96646;-68
2022/05/31 07:52:08;;;;;;;;;14.00;13.00;;;;;26.29;34.23;98848.50;6289208;27;97254;-68
2022/05/31 07:55:30;;;;;;;;;12.00;11.00;;;;;26.66;32.81;98845.03;6287023;27;96914;-68
2022/05/31 07:58:56;;;;;;;;;11.40;11.00;;;;;26.79;32.73;98850.69;6257926;27;97650;-72
2022/05/31 08:02:18;;;;;;;;;11.00;11.00;;;;;27.15;32.50;98840.84;6281536;27;97426;-69
2022/05/31 08:05:30;;;;;;;;;13.00;12.40;;;;;27.45;31.37;98854.72;6254621;27;96711;-71
2022/05/31 08:08:34;;;;;;;;;13.00;12.80;;;;;27.38;31.09;98854.41;6273452;27;97046;-72
2022/05/31 08:11:38;;;;;;;;;11.00;11.00;;;;;27.52;30.64;98839.22;6269799;27;98357;-68
2022/05/31 08:14:41;;;;;;;;;11.00;10.00;;;;;27.86;30.45;98842.94;6270374;27;98285;-71
2022/05/31 08:17:46;;;;;;;;;11.00;10.40;;;;;28.14;30.53;98855.16;6289130;27;96562;-68
2022/05/31 08:20:51;;;;;;;;;12.00;11.25;;;;;28.31;28.08;98849.47;6263014;27;96747;-72
2022/05/31 08:23:56;;;;;;;;;11.20;11.00;;;;;28.48;28.73;98850.47;6289018;27;97614;-70
2022/05/31 08:27:00;;;;;;;;;11.00;10.00;;;;;28.63;28.47;98858.16;6289056;27;97953;-68
2022/05/31 08:30:05;;;;;;;;;12.00;11.00;;;;;28.54;27.85;98849.13;6278330;27;97510;-68
2022/05/31 08:33:09;;;;;;;;;11.25;11.25;;;;;28.42;27.87;98845.13;6289171;27;96340;-68
2022/05/31 08:36:14;;;;;;;;;9.75;9.50;;;;;28.31;28.59;98843.94;6287311;27;97509;-71
2022/05/31 08:39:17;;;;;;;;;10.00;9.00;;;;;28.07;28.17;98837.41;6276187;27;98170;-72
2022/05/31 08:42:23;;;;;;;;;9.00;9.00;;;;;28.19;28.48;98840.28;6270795;27;97155;-68
2022/05/31 08:45:36;;;;;;;;;8.00;8.00;;;;;28.30;29.05;98822.88;6270769;27;97819;-71
2022/05/31 08:48:52;;;;;;;;;8.00;8.00;;;;;28.75;26.84;98841.56;6289515;27;97468;-72
2022/05/31 08:52:04;;;;;;;;;9.50;9.00;;;;;29.09;27.48;98832.88;6269704;27;97832;-70
2022/05/31 08:58:44;;;;;;;;;8.00;8.00;;;;;29.24;27.37;98823.03;6239086;27;97089;-69
2022/05/31 09:01:52;;;;;;;;;7.00;7.00;;;;;29.71;26.01;98823.44;6269060;27;96691;-68
2022/05/31 09:05:03;;;;;;;;;7.00;7.00;;;;;29.92;23.83;98821.31;6275640;27;96477;-70
2022/05/31 09:08:15;;;;;;;;;7.00;7.00;;;;;29.66;25.44;98827.22;6272299;27;97384;-69
2022/05/31 09:11:23;;;;;;;;;8.25;7.25;;;;;29.87;24.29;98823.50;6269415;27;99106;-71
2022/05/31 09:14:41;;;;;;;;;5.80;5.80;;;;;30.15;24.88;98821.63;6288565;27;96629;-69
2022/05/31 09:17:59;;;;;;;;;6.00;5.40;;;;;30.20;22.57;98826.94;6288965;27;96490;-69
2022/05/31 09:21:04;;;;;;;;;5.00;5.00;;;;;30.44;23.53;98821.28;6269406;27;98886;-71
2022/05/31 09:24:12;;;;;;;;;6.40;5.40;;;;;30.68;23.06;98822.34;6269791;27;98224;-69
2022/05/31 09:27:21;;;;;;;;;7.00;7.00;;;;;30.88;22.46;98824.09;6288486;27;97453;-68
2022/05/31 09:30:29;;;;;;;;;6.00;6.00;;;;;30.97;23.27;98819.16;6269697;27;96789;-69
2022/05/31 09:33:39;;;;;;;;;6.00;6.00;;;;;31.15;22.01;98802.94;6288107;27;96559;-70
2022/05/31 09:36:54;;;;;;;;;6.00;5.20;;;;;31.61;21.47;98827.19;6269186;27;98587;-73
2022/05/31 09:40:18;;;;;;;;;5.00;5.00;;;;;31.97;21.58;98825.19;6285394;27;97197;-73
2022/05/31 09:43:30;;;;;;;;;3.00;3.00;;;;;31.79;20.48;98822.84;6288065;27;97425;-69
2022/05/31 09:46:39;;;;;;;;;4.00;4.00;;;;;31.43;21.92;98817.53;6288602;27;96890;-71
2022/05/31 09:49:44;;;;;;;;;4.60;4.60;;;;;31.66;20.50;98812.16;6276442;27;97895;-72
2022/05/31 09:52:52;;;;;;;;;4.00;4.00;;;;;31.85;20.91;98809.41;6268102;27;97805;-69
2022/05/31 09:59:25;;;;;;;;;4.00;4.00;;;;;31.34;20.73;98812.16;6287412;27;97504;-71
2022/05/31 10:03:11;;;;;;;;;3.80;3.80;;;;;31.15;21.28;98803.75;6206260;28;97431;-72
2022/05/31 10:06:17;;;;;;;;;5.00;4.00;;;;;31.52;21.45;98806.22;6189305;28;96916;-71
2022/05/31 10:09:25;;;;;;;;;4.20;4.20;;;;;31.51;20.13;98811.00;6262725;27;97769;-73
2022/05/31 10:12:31;;;;;;;;;5.00;5.00;;;;;31.45;20.42;98812.44;6287820;27;97403;-72
2022/05/31 10:15:46;;;;;;;;;4.50;3.50;;;;;30.93;20.42;98799.59;6287982;27;97392;-71
2022/05/31 10:18:52;;;;;;;;;5.00;5.00;;;;;31.05;20.84;98795.09;6287871;27;97520;-72
2022/05/31 10:21:57;;;;;;;;;5.00;5.00;;;;;31.37;21.38;98794.72;6269712;27;97982;-69
2022/05/31 10:25:31;;;;;;;;;5.20;4.00;;;;;31.16;21.40;98787.84;6278419;27;96646;-71
2022/05/31 10:28:58;;;;;;;;;5.00;5.00;;;;;30.98;21.68;98770.66;6268220;27;96703;-72
2022/05/31 10:32:28;;;;;;;;;5.00;4.60;;;;;31.42;21.70;98783.31;6268605;27;96615;-72
2022/05/31 10:35:33;;;;;;;;;4.40;4.40;;;;;30.78;21.56;98774.50;6287265;27;97409;-70
2022/05/31 10:38:42;;;;;;;;;5.00;5.00;;;;;30.51;22.12;98779.75;6272044;27;98581;-71
2022/05/31 10:41:46;;;;;;;;;6.00;6.00;;;;;30.49;21.85;98779.31;6286235;27;97608;-69
2022/05/31 10:45:02;;;;;;;;;5.00;5.00;;;;;30.43;22.08;98780.72;6287448;27;96476;-69
2022/05/31 10:48:06;;;;;;;;;4.00;4.00;;;;;30.68;22.00;98775.03;6267520;27;97510;-72
2022/05/31 10:51:17;;;;;;;;;5.00;5.00;;;;;31.19;22.50;98767.63;6268289;27;97797;-69
2022/05/31 10:54:49;;;;;;;;;5.60;5.40;;;;;31.62;22.10;98775.06;6286961;27;97552;-69
2022/05/31 10:58:04;;;;;;;;;4.50;4.00;;;;;31.32;20.91;98769.97;6251104;27;97853;-68
2022/05/31 11:01:20;;;;;;;;;6.00;5.40;;;;;31.48;21.93;98761.53;6284828;27;97481;-68
2022/05/31 11:04:46;;;;;;;;;6.40;6.00;;;;;31.49;21.56;98762.34;6290527;27;96487;-72
2022/05/31 11:11:29;;;;;;;;;6.00;5.75;;;;;31.81;22.37;98756.34;6268346;27;96620;-71
2022/05/31 11:14:47;;;;;;;;;6.40;6.40;;;;;31.46;21.35;98751.94;6259183;27;98433;-68
2022/05/31 11:18:17;;;;;;;;;4.00;4.00;;;;;31.64;21.41;98751.22;6272120;27;96647;-71
2022/05/31 11:21:38;;;;;;;;;5.00;5.00;;;;;32.10;22.12;98752.22;6237079;27;97458;-72
2022/05/31 11:24:53;;;;;;;;;6.00;6.00;;;;;32.56;21.64;98744.75;6269308;27;97770;-72
2022/05/31 11:28:07;;;;;;;;;5.00;5.00;;;;;32.97;20.90;98739.50;6271193;27;96610;-71
2022/05/31 11:31:29;;;;;;;;;6.00;6.00;;;;;32.99;20.86;98734.34;6279332;27;97867;-69
2022/05/31 11:34:46;;;;;;;;;6.00;6.00;;;;;32.76;20.68;98741.94;6271753;27;97025;-72
2022/05/31 11:38:03;;;;;;;;;5.00;4.75;;;;;32.40;20.68;98741.25;6277569;27;97462;-68
2022/05/31 11:41:16;;;;;;;;;5.00;5.00;;;;;31.77;21.14;98735.97;6281404;27;96490;-69
2022/05/31 11:44:51;;;;;;;;;5.20;5.20;;;;;31.46;21.22;98736.03;6290785;27;97835;-72
2022/05/31 11:48:11;;;;;;;;;4.20;3.20;;;;;31.56;21.55;98729.09;6271329;27;97824;-72
2022/05/31 11:51:27;;;;;;;;;5.00;5.00;;;;;30.51;21.85;98721.34;6263259;27;96858;-72
2022/05/31 11:58:27;;;;;;;;;4.00;4.00;;;;;30.28;22.50;98719.47;6290517;27;96555;-71
2022/05/31 12:01:37;;;;;;;;;5.50;5.00;;;;;30.07;22.97;98719.69;6267080;27;96774;-71
2022/05/31 12:04:51;;;;;;;;;5.00;5.00;;;;;29.95;22.05;98717.78;6270512;27;97358;-72
2022/05/31 12:08:00;;;;;;;;;4.00;4.00;;;;;29.77;22.75;98708.06;6290235;27;96627;-69
2022/05/31 12:11:11;;;;;;;;;6.00;5.00;;;;;30.32;22.24;98710.06;6271044;27;97790;-72
2022/05/31 12:14:16;;;;;;;;;5.00;5.00;;;;;30.74;22.16;98701.25;6289412;27;98017;-69
2022/05/31 12:17:23;;;;;;;;;5.00;5.00;;;;;30.72;21.94;98690.47;6270720;27;97906;-72
2022/05/31 12:20:32;;;;;;;;;4.00;4.00;;;;;30.89;21.86;98678.16;6289926;27;96665;-72
2022/05/31 12:23:41;;;;;;;;;7.00;6.00;;;;;31.45;22.33;98675.91;6289816;27;97115;-72
2022/05/31 12:26:52;;;;;;;;;4.40;4.40;;;;;31.69;20.18;98678.47;6288104;27;97410;-71
2022/05/31 12:30:05;;;;;;;;;5.00;5.00;;;;;31.45;21.04;98672.31;6287631;27;97486;-72
2022/05/31 12:33:28;;;;;;;;;4.80;4.40;;;;;31.44;21.39;98665.94;6277877;27;97924;-72
2022/05/31 12:36:58;;;;;;;;;5.00;4.60;;;;;31.05;21.84;98653.09;6288783;27;97424;-68
2022/05/31 12:40:26;;;;;;;;;4.00;4.00;;;;;30.74;21.87;98654.72;6286069;27;97520;-71
2022/05/31 12:43:51;;;;;;;;;4.00;4.00;;;;;30.93;22.01;98654.00;6288881;27;96791;-72
2022/05/31 12:46:55;;;;;;;;;4.00;4.00;;;;;31.14;21.05;98642.56;6287551;27;96388;-70
2022/05/31 12:50:02;;;;;;;;;4.00;4.00;;;;;30.88;20.88;98640.38;6270686;27;98515;-72
2022/05/31 12:53:23;;;;;;;;;4.00;4.00;;;;;30.17;22.12;98627.41;6289059;27;97538;-72
2022/05/31 12:56:59;;;;;;;;;4.00;4.00;;;;;30.48;22.33;98630.25;6289122;27;97096;-69
2022/05/31 13:00:42;;;;;;;;;4.25;4.25;;;;;30.66;21.44;98614.00;6264186;27;97222;-70
2022/05/31 13:03:57;;;;;;;;;5.00;4.00;;;;;30.97;21.58;98624.28;6270392;27;97159;-69
2022/05/31 13:07:14;;;;;;;;;4.00;4.00;;;;;30.68;21.72;98620.00;6289157;27;96849;-68
2022/05/31 13:20:57;;;;;;;;;4.00;4.00;;;;;30.98;22.33;98612.75;6249857;27;97175;-69
2022/05/31 13:24:21;;;;;;;;;4.00;4.00;;;;;30.71;21.39;98597.00;6287304;27;97539;-69
2022/05/31 13:27:29;;;;;;;;;5.00;4.00;;;;;30.35;22.25;98603.66;6268045;27;96809;-69
2022/05/31 13:30:43;;;;;;;;;5.00;4.00;;;;;30.22;22.59;98584.63;6282388;27;96521;-69
2022/05/31 13:33:55;;;;;;;;;4.00;3.00;;;;;30.27;22.26;98581.59;6287355;27;98004;-68
2022/05/31 13:37:01;;;;;;;;;4.60;4.00;;;;;30.07;22.89;98600.13;6269106;27;97180;-68
2022/05/31 13:40:07;;;;;;;;;4.00;4.00;;;;;29.62;23.00;98587.38;6276940;27;97892;-69
2022/05/31 13:43:18;;;;;;;;;6.00;5.00;;;;;29.61;23.20;98574.66;6284990;27;97665;-71
2022/05/31 13:46:30;;;;;;;;;3.40;3.40;;;;;29.57;23.24;98584.03;6265993;27;97805;-71
2022/05/31 13:49:39;;;;;;;;;5.00;5.00;;;;;29.49;23.46;98568.34;6266974;27;97257;-69
2022/05/31 13:52:42;;;;;;;;;4.00;4.00;;;;;29.53;23.79;98560.91;6283594;27;96616;-72
2022/05/31 13:55:46;;;;;;;;;4.00;3.80;;;;;29.63;23.57;98563.19;6266583;27;97335;-72
2022/05/31 13:58:51;;;;;;;;;5.60;5.00;;;;;29.19;23.74;98559.53;6282815;27;96775;-72
2022/05/31 14:01:58;;;;;;;;;6.00;6.00;;;;;29.20;24.47;98569.47;6285317;27;96704;-70
2022/05/31 14:05:03;;;;;;;;;4.80;4.80;;;;;29.28;24.44;98557.41;6257597;27;96863;-68
2022/05/31 14:08:07;;;;;;;;;5.00;5.00;;;;;28.88;24.45;98557.44;6252435;27;97826;-68
2022/05/31 14:11:18;;;;;;;;;7.00;7.00;;;;;28.94;24.74;98550.44;6253783;27;97016;-68
2022/05/31 14:14:29;;;;;;;;;6.75;6.00;;;;;28.52;25.88;98547.16;6248132;27;98462;-71
2022/05/31 14:17:37;;;;;;;;;5.00;5.00;;;;;28.75;25.84;98548.28;6283705;27;97414;-73
2022/05/31 14:20:44;;;;;;;;;5.40;5.00;;;;;28.76;26.08;98552.69;6262609;27;97896;-73
2022/05/31 14:23:48;;;;;;;;;5.00;4.60;;;;;29.02;25.58;98545.94;6283046;27;97091;-72
2022/05/31 14:26:53;;;;;;;;;4.20;4.20;;;;;29.27;25.48;98542.72;6277373;27;97361;-72
2022/05/31 14:30:07;;;;;;;;;7.00;6.50;;;;;29.57;25.32;98540.41;6283417;27;97493;-70
2022/05/31 14:33:14;;;;;;;;;6.50;6.00;;;;;29.55;25.29;98547.50;6263380;27;97924;-72
2022/05/31 14:36:30;;;;;;;;;5.00;5.00;;;;;29.31;25.11;98540.09;6254961;27;97191;-73
2022/05/31 14:39:43;;;;;;;;;5.00;5.00;;;;;28.63;26.17;98539.16;6265766;27;97318;-72
2022/05/31 14:42:56;;;;;;;;;5.50;4.00;;;;;28.51;26.35;98533.63;6249118;27;96705;-69
2022/05/31 14:46:01;;;;;;;;;5.80;5.80;;;;;28.35;26.97;98531.53;6268101;27;96839;-69
2022/05/31 14:49:08;;;;;;;;;5.00;4.00;;;;;28.20;27.48;98534.22;6289104;27;97192;-70
2022/05/31 14:52:27;;;;;;;;;6.00;6.00;;;;;28.31;26.84;98525.09;6254029;27;97408;-71
2022/05/31 14:55:41;;;;;;;;;5.80;5.80;;;;;28.31;26.98;98524.28;6263424;27;96826;-68
2022/05/31 14:58:47;;;;;;;;;6.00;5.00;;;;;28.39;27.48;98518.59;6288083;27;97521;-71
2022/05/31 15:01:52;;;;;;;;;4.00;4.00;;;;;28.34;27.37;98529.16;6243432;27;98327;-69
2022/05/31 15:04:58;;;;;;;;;3.60;3.60;;;;;28.15;26.85;98529.69;6270108;27;100300;-69
2022/05/31 15:08:02;;;;;;;;;5.20;4.00;;;;;28.12;27.41;98521.28;6289752;27;97449;-69
2022/05/31 15:21:14;;;;;;;;;5.00;4.00;;;;;27.66;28.41;98505.84;6279413;27;96522;-69
2022/05/31 15:24:22;;;;;;;;;5.00;5.00;;;;;27.84;28.15;98513.59;6266606;27;99146;-69
2022/05/31 15:27:29;;;;;;;;;6.00;5.25;;;;;27.78;28.36;98487.28;6269485;27;97457;-69
2022/05/31 15:30:32;;;;;;;;;6.00;5.00;;;;;28.03;27.42;98510.28;6273370;27;98837;-72
2022/05/31 15:33:55;;;;;;;;;6.40;6.00;;;;;28.25;28.38;98500.69;6255194;27;96888;-72
2022/05/31 15:37:02;;;;;;;;;5.00;5.00;;;;;28.35;27.30;98501.06;6262219;27;98462;-69
2022/05/31 15:40:07;;;;;;;;;6.00;5.40;;;;;28.20;27.66;98503.75;6289305;27;96510;-73